La Palma > ESTACION METEOROLÓGICA Bodegas Teneguía - Fuencaliente

DATOS ACTUALES Online

Ultima actulizacion 21 minutos

18.9 ºC

Temperatura

88

Humedad (%)

935.21

Presión (mb)

9.8

Precipitación (mm)

37 W

Viento (Km/h)

DATOS DIARIOS

Temperatura últimas 24 horas (ºC)

Humedad últimas 24 horas (%)

Presión atmosférica últimas 24 horas (mb)

Precipitaciones últimas 23 horas (mm)

Viento últimas 24 horas (Km/h)

Hora Temperatura (°C) ºC Precipitación (mm) mm Presión (mb) mb Humedad (%) % Viento (Km/h) km/h
24 - 23:00 18.9 0 938 68 24.9 W
25 - 00:00 18.9 0 938 72 39.9 W
25 - 01:00 18.5 0 938 77 24.8 W
25 - 02:00 18.2 0 937 76 35.9 W
25 - 03:00 18.6 0 937 73 31.4 SW
25 - 04:00 18.7 0 937 72 31.2 W
25 - 05:00 18.8 0 936 72 21.3 SW
25 - 06:00 19.7 0 936 73 13 SW
25 - 07:00 19.6 0 937 71 28.7 W
25 - 08:00 19.3 0 937 77 29.7 W
25 - 09:00 18.1 0.2 938 84 22.7 W
25 - 10:00 18 1.6 938 85 23.9 W
25 - 11:00 18.3 2.8 938 86 13.9 N
25 - 12:00 18 4.8 938 87 27.3 W
25 - 13:00 18.5 7.2 938 87 20.2 W
25 - 14:00 18.7 8.3 937 88 16.8 W
25 - 15:00 18.9 8.9 936 88 22.8 W
25 - 16:00 18.9 9 935 88 20.4 NW
25 - 17:00 18.7 9 936 89 23 NW
25 - 18:00 18.7 9 936 89 20.2 W
25 - 19:00 18.5 9.3 936 88 29 W
25 - 20:00 18.8 9.4 935 88 22.4 W
25 - 21:00 18.6 9.8 936 88 32 W
25 - 22:00 18.9 9.8 936 88 36.2 W
25 - 23:00 18.9 9.8 935 88 37 W
Apalmet utiliza cookies propias y de terceros para mejorar la usabilidad y la experiencia web. Política de cookies.